Time;durP1;ratioP1;P1;durP2;ratioP2;P2;SDS_P1;SDS_P2;PMS_P1;PMS_P2;Temp;Humidity;BMP_temperature;BMP_pressure;BME280_temperature;BME280_humidity;BME280_pressure;Samples;Min_cycle;Max_cycle;Signal;HPM_P1;HPM_P2
2022/03/28 00:01:32;;;;;;;38.97;4.93;;;5.60;99.90;;;;;;5012716;28;20388;-70
2022/03/28 00:03:58;;;;;;;62.72;5.63;;;5.70;99.90;;;;;;5012256;28;20042;-69
2022/03/28 00:06:24;;;;;;;85.63;5.68;;;5.70;99.90;;;;;;5012495;28;20072;-70
2022/03/28 00:08:50;;;;;;;151.82;6.75;;;5.70;99.90;;;;;;5011948;28;20054;-70
2022/03/28 00:11:17;;;;;;;59.22;6.05;;;5.70;99.90;;;;;;5010800;28;20058;-69
2022/03/28 00:13:43;;;;;;;49.90;5.75;;;5.60;99.90;;;;;;5011884;28;20054;-72
2022/03/28 00:16:10;;;;;;;53.13;5.28;;;5.60;99.90;;;;;;5015526;28;20406;-70
2022/03/28 00:18:35;;;;;;;31.90;5.07;;;5.60;99.90;;;;;;5014443;28;20057;-69
2022/03/28 00:21:01;;;;;;;53.45;6.85;;;5.70;99.90;;;;;;5015248;28;20045;-70
2022/03/28 00:23:27;;;;;;;60.10;5.43;;;5.60;99.90;;;;;;5030773;28;20042;-70
2022/03/28 00:25:53;;;;;;;49.00;6.32;;;5.70;99.90;;;;;;5015743;28;20049;-70
2022/03/28 00:28:19;;;;;;;97.78;8.73;;;5.70;99.90;;;;;;5015603;28;20105;-70
2022/03/28 00:30:45;;;;;;;101.30;7.43;;;5.70;99.90;;;;;;5015104;28;20129;-71
2022/03/28 00:33:11;;;;;;;87.53;7.63;;;5.70;99.90;;;;;;5015532;28;20389;-70
2022/03/28 00:35:37;;;;;;;90.57;8.32;;;5.70;99.90;;;;;;4981723;28;20049;-70
2022/03/28 00:38:04;;;;;;;26.35;5.82;;;5.70;99.90;;;;;;5013976;28;20054;-69
2022/03/28 00:40:32;;;;;;;57.92;4.63;;;5.70;99.90;;;;;;5014232;28;20057;-69
2022/03/28 00:42:58;;;;;;;;;;;5.80;99.90;;;;;;5014383;28;20125;-70
2022/03/28 00:45:25;;;;;;;68.03;4.38;;;5.80;99.90;;;;;;5014342;28;19983;-69
2022/03/28 00:47:51;;;;;;;58.57;5.33;;;5.80;99.90;;;;;;5015308;28;20088;-70
2022/03/28 00:50:17;;;;;;;45.42;4.72;;;5.80;99.90;;;;;;5015083;28;20045;-70
2022/03/28 00:52:43;;;;;;;69.30;5.32;;;5.80;99.90;;;;;;5030416;28;20149;-70
2022/03/28 00:55:09;;;;;;;68.82;5.57;;;5.70;99.90;;;;;;5015412;28;20149;-69
2022/03/28 00:57:36;;;;;;;33.25;4.63;;;5.60;99.90;;;;;;5015712;28;20058;-70
2022/03/28 01:00:06;;;;;;;81.80;5.00;;;5.60;99.90;;;;;;5015519;28;20076;-70
2022/03/28 01:02:32;;;;;;;71.15;5.18;;;5.60;99.90;;;;;;5015153;28;20120;-69
2022/03/28 01:04:59;;;;;;;69.18;5.15;;;5.60;99.90;;;;;;5013467;28;20132;-70
2022/03/28 01:07:28;;;;;;;54.40;5.05;;;5.60;99.90;;;;;;5014595;28;20096;-70
2022/03/28 01:09:56;;;;;;;59.10;4.40;;;5.60;99.90;;;;;;5013509;28;20133;-70
2022/03/28 01:12:25;;;;;;;69.38;4.93;;;5.50;99.90;;;;;;5014541;28;20053;-69
2022/03/28 01:14:51;;;;;;;56.55;4.55;;;5.40;99.90;;;;;;5013473;28;20089;-70
2022/03/28 01:20:01;;;;;;;74.35;4.28;;;5.50;99.90;;;;;;5014503;28;20061;-69
2022/03/28 01:22:27;;;;;;;60.20;4.30;;;5.40;99.90;;;;;;5029581;28;20081;-70
2022/03/28 01:24:56;;;;;;;51.67;5.63;;;5.40;99.90;;;;;;5013259;28;20642;-72
2022/03/28 01:27:23;;;;;;;84.75;3.75;;;5.40;99.90;;;;;;5014039;28;20046;-70
2022/03/28 01:29:50;;;;;;;37.17;3.80;;;5.30;99.90;;;;;;5014828;28;20050;-71
2022/03/28 01:32:16;;;;;;;65.78;3.53;;;5.20;99.90;;;;;;5029837;28;20103;-70
2022/03/28 01:34:41;;;;;;;27.67;3.47;;;5.10;99.90;;;;;;5013281;28;20406;-69
2022/03/28 01:37:07;;;;;;;48.33;2.70;;;5.00;99.90;;;;;;5013995;28;20112;-71
2022/03/28 01:39:33;;;;;;;35.63;3.40;;;4.90;99.90;;;;;;5013600;28;20104;-70
2022/03/28 01:41:59;;;;;;;37.20;2.47;;;4.90;99.90;;;;;;5012837;28;20046;-70
2022/03/28 01:44:26;;;;;;;50.83;3.30;;;4.90;99.90;;;;;;5029338;28;20092;-70
2022/03/28 01:46:51;;;;;;;53.85;3.17;;;5.00;99.90;;;;;;5013067;28;20060;-70
2022/03/28 01:49:19;;;;;;;34.47;3.22;;;5.00;99.90;;;;;;4997294;28;20050;-70
2022/03/28 01:51:46;;;;;;;89.53;3.60;;;5.00;99.90;;;;;;5014049;28;20082;-70
2022/03/28 01:54:12;;;;;;;54.10;4.78;;;5.10;99.90;;;;;;5012948;28;20068;-70
2022/03/28 01:56:38;;;;;;;43.58;6.10;;;5.00;99.90;;;;;;5012378;28;20062;-70
2022/03/28 01:59:06;;;;;;;35.50;4.25;;;5.10;99.90;;;;;;5013092;28;20433;-70
2022/03/28 02:01:32;;;;;;;;;;;5.10;99.90;;;;;;5014188;28;20434;-69
2022/03/28 02:03:57;;;;;;;41.93;2.50;;;5.10;99.90;;;;;;5012672;28;19944;-70
2022/03/28 02:06:24;;;;;;;29.17;2.13;;;5.10;99.90;;;;;;5014081;28;20053;-71
2022/03/28 02:08:50;;;;;;;22.10;2.03;;;5.00;99.90;;;;;;5012431;28;20477;-70
2022/03/28 02:11:16;;;;;;;47.10;2.65;;;5.00;99.90;;;;;;5014086;28;20117;-71
2022/03/28 02:13:42;;;;;;;41.92;1.90;;;5.00;99.90;;;;;;5013068;28;20111;-70
2022/03/28 02:16:08;;;;;;;53.75;3.35;;;5.00;99.90;;;;;;4980307;28;20108;-70
2022/03/28 02:18:34;;;;;;;18.52;1.67;;;5.00;99.90;;;;;;5014003;28;20406;-70
2022/03/28 02:21:00;;;;;;;41.60;2.42;;;5.00;99.90;;;;;;5012398;28;20050;-71
2022/03/28 02:23:27;;;;;;;63.65;2.85;;;5.00;99.90;;;;;;4996398;28;20046;-70
2022/03/28 02:25:53;;;;;;;54.65;2.58;;;4.90;99.90;;;;;;5013426;28;20065;-70
2022/03/28 02:28:19;;;;;;;42.75;2.58;;;5.00;99.90;;;;;;5012182;28;20042;-70
2022/03/28 02:30:45;;;;;;;25.02;2.58;;;5.00;99.90;;;;;;5014095;28;20161;-70
2022/03/28 02:33:10;;;;;;;46.40;4.30;;;5.10;99.90;;;;;;5011767;28;20427;-70
2022/03/28 02:35:36;;;;;;;34.55;3.70;;;5.10;99.90;;;;;;5012124;28;20133;-70
2022/03/28 02:38:03;;;;;;;35.58;3.92;;;5.20;99.90;;;;;;4994731;28;20042;-70
2022/03/28 02:40:30;;;;;;;61.85;4.25;;;5.20;99.90;;;;;;5012239;28;20077;-70
2022/03/28 02:42:57;;;;;;;59.38;5.65;;;5.20;99.90;;;;;;5011851;28;20115;-70
2022/03/28 02:45:23;;;;;;;;;;;5.20;99.90;;;;;;5012629;28;20447;-70
2022/03/28 02:47:49;;;;;;;72.23;6.40;;;5.30;99.90;;;;;;5012965;28;19928;-70
2022/03/28 02:50:15;;;;;;;40.92;4.95;;;5.30;99.90;;;;;;5013341;28;20320;-69
2022/03/28 02:52:41;;;;;;;67.85;5.03;;;5.30;99.90;;;;;;5012538;28;20394;-70
2022/03/28 02:55:07;;;;;;;56.15;4.50;;;5.30;99.90;;;;;;5013001;28;20058;-70
2022/03/28 02:57:34;;;;;;;76.00;5.43;;;5.20;99.90;;;;;;5011420;28;20148;-71
2022/03/28 03:00:00;;;;;;;108.13;11.30;;;5.20;99.90;;;;;;5013318;28;20041;-70
2022/03/28 03:02:26;;;;;;;108.47;5.28;;;5.20;99.90;;;;;;4979517;28;20112;-70
2022/03/28 03:04:51;;;;;;;79.97;4.85;;;5.20;99.90;;;;;;5012687;28;20487;-70
2022/03/28 03:07:18;;;;;;;63.53;4.90;;;5.20;99.90;;;;;;5012041;28;20046;-70
2022/03/28 03:09:44;;;;;;;65.53;5.10;;;5.30;99.90;;;;;;5013661;28;20442;-71
2022/03/28 03:12:10;;;;;;;64.93;4.93;;;5.30;99.90;;;;;;5013044;28;20609;-70
2022/03/28 03:14:36;;;;;;;102.57;6.32;;;5.40;99.90;;;;;;5013363;28;20057;-70
2022/03/28 03:17:02;;;;;;;62.38;7.18;;;5.40;99.90;;;;;;5012236;28;20500;-70
2022/03/28 03:19:28;;;;;;;79.47;6.47;;;5.40;99.90;;;;;;4997211;28;20137;-70
2022/03/28 03:21:54;;;;;;;61.05;6.63;;;5.40;99.90;;;;;;5016233;28;20042;-70
2022/03/28 03:24:20;;;;;;;74.88;7.72;;;5.40;99.90;;;;;;5031148;28;20374;-70
2022/03/28 03:26:46;;;;;;;50.65;6.43;;;5.50;99.90;;;;;;5014988;28;20053;-71
2022/03/28 03:29:12;;;;;;;93.45;8.43;;;5.40;99.90;;;;;;5016210;28;20359;-70
2022/03/28 03:31:39;;;;;;;143.13;9.38;;;5.40;99.90;;;;;;5016458;28;20045;-70
2022/03/28 03:34:06;;;;;;;113.03;8.15;;;5.30;99.90;;;;;;5017671;28;20062;-70
2022/03/28 03:36:32;;;;;;;53.58;6.90;;;5.30;99.90;;;;;;5019568;28;20105;-71
2022/03/28 03:38:58;;;;;;;179.35;9.75;;;5.30;99.90;;;;;;5028230;28;20104;-71
2022/03/28 03:41:24;;;;;;;314.17;14.20;;;5.20;99.90;;;;;;5017981;28;20050;-71
2022/03/28 03:43:50;;;;;;;54.85;8.05;;;5.20;99.90;;;;;;5012616;28;20050;-71
2022/03/28 03:46:16;;;;;;;76.38;8.00;;;5.10;99.90;;;;;;5012399;28;20383;-70
2022/03/28 03:48:41;;;;;;;69.43;9.20;;;5.20;99.90;;;;;;5012619;28;20054;-70
2022/03/28 03:51:07;;;;;;;71.75;8.45;;;5.20;99.90;;;;;;5016213;28;20394;-70
2022/03/28 03:53:34;;;;;;;64.17;9.97;;;5.30;99.90;;;;;;5032374;28;20050;-70
2022/03/28 03:55:59;;;;;;;94.25;8.80;;;5.20;99.90;;;;;;5031855;28;20546;-70
2022/03/28 03:58:26;;;;;;;97.25;8.73;;;5.30;99.90;;;;;;5015968;28;20092;-68
2022/03/28 04:00:52;;;;;;;97.90;8.23;;;5.30;99.90;;;;;;5016645;28;20052;-70
2022/03/28 04:03:18;;;;;;;67.43;9.88;;;5.30;99.90;;;;;;5015004;28;20054;-70
2022/03/28 04:05:44;;;;;;;64.65;8.60;;;5.30;99.90;;;;;;5016251;28;20378;-68
2022/03/28 04:08:09;;;;;;;53.50;10.50;;;5.30;99.90;;;;;;5015694;28;20180;-71
2022/03/28 04:10:35;;;;;;;64.00;8.65;;;5.40;99.90;;;;;;5016070;28;20449;-70
2022/03/28 04:13:02;;;;;;;111.68;9.27;;;5.30;99.90;;;;;;5014694;28;20096;-69
2022/03/28 04:15:28;;;;;;;117.43;10.13;;;5.40;99.90;;;;;;5016134;28;20048;-70
2022/03/28 04:17:54;;;;;;;56.40;8.27;;;5.40;99.90;;;;;;5014735;28;20092;-70
2022/03/28 04:20:20;;;;;;;45.88;8.07;;;5.40;99.90;;;;;;5016172;28;20042;-69
2022/03/28 04:22:46;;;;;;;92.53;9.65;;;5.30;99.90;;;;;;5014557;28;20049;-69
2022/03/28 04:25:14;;;;;;;59.53;7.75;;;5.20;99.90;;;;;;5014321;28;20498;-72
2022/03/28 04:27:40;;;;;;;36.75;7.55;;;5.30;99.90;;;;;;5015508;28;20054;-70
2022/03/28 04:30:10;;;;;;;58.08;7.28;;;5.30;99.90;;;;;;5014522;28;20116;-70
2022/03/28 04:32:36;;;;;;;83.07;9.18;;;5.40;99.90;;;;;;5015507;28;20038;-70
2022/03/28 04:35:04;;;;;;;51.80;7.78;;;5.30;99.90;;;;;;5015313;28;20477;-70
2022/03/28 04:37:40;;;;;;;54.78;7.47;;;5.30;99.90;;;;;;5015682;28;20151;-69
2022/03/28 04:40:09;;;;;;;56.20;7.38;;;5.30;99.90;;;;;;5015069;28;20042;-70
2022/03/28 04:42:35;;;;;;;68.30;8.55;;;5.30;99.90;;;;;;5014494;28;20173;-71
2022/03/28 04:45:03;;;;;;;139.77;12.88;;;5.20;99.90;;;;;;5015424;28;20077;-70
2022/03/28 04:47:29;;;;;;;57.42;7.78;;;5.10;99.90;;;;;;5014388;28;20050;-70
2022/03/28 04:49:55;;;;;;;110.32;10.00;;;5.20;99.90;;;;;;5014257;28;20054;-70
2022/03/28 04:52:21;;;;;;;58.58;7.30;;;5.20;99.90;;;;;;5014780;28;20067;-70
2022/03/28 04:54:47;;;;;;;67.00;8.45;;;5.10;99.90;;;;;;5015898;28;20049;-69
2022/03/28 04:57:13;;;;;;;72.43;9.45;;;5.10;99.90;;;;;;5030208;28;20487;-70
2022/03/28 04:59:39;;;;;;;146.85;13.25;;;5.10;99.90;;;;;;5030748;28;20052;-70
2022/03/28 05:02:06;;;;;;;119.97;12.18;;;5.10;99.90;;;;;;4980888;28;20057;-70
2022/03/28 05:04:32;;;;;;;84.63;9.60;;;5.10;99.90;;;;;;5015705;28;20050;-70
2022/03/28 05:06:58;;;;;;;68.78;9.63;;;5.10;99.90;;;;;;4997831;28;20053;-70
2022/03/28 05:09:24;;;;;;;68.70;9.60;;;5.10;99.90;;;;;;4997476;28;20145;-70
2022/03/28 05:11:49;;;;;;;92.35;11.75;;;5.20;99.90;;;;;;5029809;28;20045;-70
2022/03/28 05:14:15;;;;;;;51.00;8.93;;;5.10;99.90;;;;;;4997413;28;20056;-71
2022/03/28 05:16:41;;;;;;;62.38;9.20;;;5.20;99.90;;;;;;5015338;28;20421;-71
2022/03/28 05:19:07;;;;;;;70.95;9.70;;;5.10;99.90;;;;;;5015174;28;20052;-70
2022/03/28 05:21:32;;;;;;;90.18;11.88;;;5.10;99.90;;;;;;5015181;28;20462;-71
2022/03/28 05:23:58;;;;;;;78.30;11.20;;;5.10;99.90;;;;;;5016022;28;20050;-69
2022/03/28 05:26:26;;;;;;;112.10;13.85;;;5.10;99.90;;;;;;5014893;28;20042;-69
2022/03/28 05:28:52;;;;;;;76.15;10.02;;;5.10;99.90;;;;;;5015089;28;20049;-70
2022/03/28 05:31:18;;;;;;;137.27;14.55;;;5.10;99.90;;;;;;5015272;28;20052;-69
2022/03/28 05:33:44;;;;;;;97.15;11.32;;;5.10;99.90;;;;;;5015213;28;20534;-70
2022/03/28 05:36:10;;;;;;;91.70;10.40;;;5.10;99.90;;;;;;5014831;28;20058;-69
2022/03/28 05:38:36;;;;;;;87.30;10.55;;;5.10;99.90;;;;;;5013820;28;20060;-71
2022/03/28 05:41:05;;;;;;;69.70;12.35;;;5.10;99.90;;;;;;5014397;28;20437;-69
2022/03/28 05:43:32;;;;;;;77.05;11.60;;;5.20;99.90;;;;;;5012926;28;20124;-70
2022/03/28 05:45:58;;;;;;;162.90;13.07;;;5.10;99.90;;;;;;5013376;28;20509;-69
2022/03/28 05:48:23;;;;;;;93.25;12.00;;;5.20;99.90;;;;;;5012980;28;20129;-69
2022/03/28 05:50:49;;;;;;;112.05;15.13;;;5.30;99.90;;;;;;5014241;28;20046;-71
2022/03/28 05:53:15;;;;;;;65.35;11.90;;;5.20;99.90;;;;;;5014099;28;20041;-70
2022/03/28 05:55:42;;;;;;;86.28;12.52;;;5.20;99.90;;;;;;5012494;28;20352;-71
2022/03/28 05:58:09;;;;;;;112.15;13.10;;;5.30;99.90;;;;;;5014654;28;20050;-70
2022/03/28 06:00:36;;;;;;;87.43;14.13;;;5.30;99.90;;;;;;5014174;28;20125;-70
2022/03/28 06:03:02;;;;;;;71.90;12.00;;;5.20;99.90;;;;;;4997146;28;20744;-70
2022/03/28 06:05:28;;;;;;;71.28;13.68;;;5.30;99.90;;;;;;5014159;28;20140;-70
2022/03/28 06:07:53;;;;;;;62.15;12.07;;;5.30;99.90;;;;;;5013096;28;20184;-69
2022/03/28 06:10:19;;;;;;;68.57;12.90;;;5.40;99.90;;;;;;5014352;28;20041;-69
2022/03/28 06:12:45;;;;;;;70.00;12.77;;;5.50;99.90;;;;;;5013403;28;20042;-69
2022/03/28 06:15:11;;;;;;;73.68;11.82;;;5.50;99.90;;;;;;5014032;28;20556;-69
2022/03/28 06:17:36;;;;;;;65.47;14.00;;;5.60;99.90;;;;;;5013772;28;20049;-70
2022/03/28 06:20:04;;;;;;;63.88;12.95;;;5.60;99.90;;;;;;5013662;28;20117;-70
2022/03/28 06:22:29;;;;;;;;;;;5.60;99.90;;;;;;5014117;28;20094;-69
2022/03/28 06:24:56;;;;;;;93.40;15.75;;;5.70;99.90;;;;;;4996541;28;19971;-69
2022/03/28 06:27:24;;;;;;;92.82;16.02;;;5.60;99.90;;;;;;4995826;28;20049;-69
2022/03/28 06:29:51;;;;;;;80.75;14.85;;;5.60;99.90;;;;;;5012283;28;20072;-69
2022/03/28 06:32:17;;;;;;;70.85;14.10;;;5.70;99.90;;;;;;5013428;28;20062;-69
2022/03/28 06:34:43;;;;;;;86.95;15.13;;;5.60;99.90;;;;;;5013370;28;20053;-69
2022/03/28 06:37:08;;;;;;;66.95;13.90;;;5.70;99.90;;;;;;5012027;28;20096;-72
2022/03/28 06:39:35;;;;;;;95.93;15.80;;;5.60;99.90;;;;;;4995521;28;20060;-70
2022/03/28 06:42:01;;;;;;;83.93;16.67;;;5.70;99.90;;;;;;5011817;28;20057;-70
2022/03/28 06:44:27;;;;;;;89.13;17.90;;;5.80;99.90;;;;;;4995588;28;20112;-70
2022/03/28 06:46:52;;;;;;;86.70;15.50;;;5.90;99.90;;;;;;5012745;28;20046;-69
2022/03/28 06:49:18;;;;;;;76.95;15.68;;;5.90;99.90;;;;;;5011433;28;20458;-69
2022/03/28 06:51:44;;;;;;;71.93;16.75;;;6.00;99.90;;;;;;4995014;28;20034;-68
2022/03/28 06:54:13;;;;;;;62.53;14.88;;;6.00;99.90;;;;;;5013160;28;20086;-70
2022/03/28 06:56:39;;;;;;;64.95;15.18;;;6.00;99.90;;;;;;5010879;28;20088;-71
2022/03/28 06:59:06;;;;;;;66.78;14.65;;;6.10;99.90;;;;;;5011962;28;20053;-69
2022/03/28 07:01:32;;;;;;;57.40;15.80;;;6.10;99.90;;;;;;4995306;28;20042;-71
2022/03/28 07:03:57;;;;;;;56.20;13.35;;;6.10;99.90;;;;;;5011720;28;20042;-69
2022/03/28 07:06:24;;;;;;;79.50;16.15;;;6.10;99.90;;;;;;5012746;28;20121;-69
2022/03/28 07:08:49;;;;;;;63.90;16.08;;;6.10;99.90;;;;;;5011992;28;20085;-69
2022/03/28 07:11:15;;;;;;;60.08;14.68;;;6.10;99.90;;;;;;5011292;28;20119;-69
2022/03/28 07:13:41;;;;;;;60.88;14.48;;;6.10;99.90;;;;;;5011162;28;20092;-70
2022/03/28 07:16:07;;;;;;;60.40;15.15;;;6.20;99.90;;;;;;4995189;28;20057;-70
2022/03/28 07:18:32;;;;;;;59.05;15.07;;;6.20;99.90;;;;;;5012211;28;20256;-69
2022/03/28 07:20:58;;;;;;;53.25;13.02;;;6.20;99.90;;;;;;5011378;28;20057;-70
2022/03/28 07:23:24;;;;;;;57.00;15.98;;;6.20;99.90;;;;;;4994906;28;20132;-70
2022/03/28 07:25:49;;;;;;;55.88;15.50;;;6.30;99.90;;;;;;5011930;28;20041;-70
2022/03/28 07:28:17;;;;;;;62.63;17.13;;;6.30;99.90;;;;;;5011303;28;20053;-71
2022/03/28 07:30:43;;;;;;;;;;;6.40;99.90;;;;;;5011960;28;20049;-71
2022/03/28 07:33:09;;;;;;;60.20;14.83;;;6.40;99.90;;;;;;4994486;28;19932;-72
2022/03/28 07:35:36;;;;;;;58.17;16.00;;;6.20;99.90;;;;;;4995047;28;20351;-70
2022/03/28 07:38:03;;;;;;;;;;;6.30;99.90;;;;;;5013041;28;20053;-69
2022/03/28 07:40:29;;;;;;;74.03;20.20;;;6.20;99.90;;;;;;5011401;28;19921;-69
2022/03/28 07:42:55;;;;;;;61.80;17.15;;;5.90;99.90;;;;;;5011217;28;20398;-69
2022/03/28 07:45:23;;;;;;;54.47;15.18;;;6.10;99.90;;;;;;5011003;28;20057;-69
2022/03/28 07:47:49;;;;;;;63.35;17.08;;;6.20;99.90;;;;;;4995111;28;20347;-69
2022/03/28 07:50:14;;;;;;;59.17;15.88;;;6.30;99.90;;;;;;5012330;28;20071;-68
2022/03/28 07:52:41;;;;;;;55.40;16.58;;;6.40;99.90;;;;;;5011513;28;20042;-71
2022/03/28 07:55:08;;;;;;;56.97;15.63;;;6.40;99.90;;;;;;5012100;28;20109;-69
2022/03/28 07:57:35;;;;;;;;;;;6.40;99.90;;;;;;5011801;28;20141;-69
2022/03/28 08:00:04;;;;;;;58.55;15.32;;;6.40;99.90;;;;;;4995055;28;19921;-70
2022/03/28 08:02:29;;;;;;;59.08;16.20;;;6.40;99.90;;;;;;5011001;28;20057;-69
2022/03/28 08:04:55;;;;;;;59.83;15.55;;;6.50;99.90;;;;;;5010810;28;20046;-69
2022/03/28 08:07:21;;;;;;;53.10;15.55;;;6.40;99.90;;;;;;5012146;28;20054;-69
2022/03/28 08:09:47;;;;;;;51.77;14.83;;;6.50;99.90;;;;;;4994560;28;20045;-69
2022/03/28 08:12:13;;;;;;;60.03;17.15;;;6.50;99.90;;;;;;5011675;28;20373;-69
2022/03/28 08:14:39;;;;;;;55.92;15.73;;;6.30;99.90;;;;;;4995155;28;20053;-69
2022/03/28 08:17:06;;;;;;;67.85;17.90;;;6.50;99.90;;;;;;5010776;28;20105;-69
2022/03/28 08:19:32;;;;;;;54.10;16.13;;;6.50;99.90;;;;;;5012264;28;20061;-68
2022/03/28 08:21:58;;;;;;;52.22;15.20;;;6.50;99.90;;;;;;5011939;28;20277;-69
2022/03/28 08:24:23;;;;;;;50.53;15.77;;;6.60;99.90;;;;;;4994867;28;20053;-68
2022/03/28 08:26:49;;;;;;;62.92;15.82;;;6.40;99.90;;;;;;5010697;28;20050;-69
2022/03/28 08:29:15;;;;;;;60.30;15.48;;;6.50;99.90;;;;;;4962994;28;20045;-70
2022/03/28 08:31:41;;;;;;;75.07;19.05;;;6.70;99.90;;;;;;5011966;28;20054;-69
2022/03/28 08:34:08;;;;;;;55.25;15.40;;;6.50;99.90;;;;;;5010376;28;20453;-69
2022/03/28 08:36:34;;;;;;;62.42;16.60;;;6.60;99.90;;;;;;5012953;28;20054;-69
2022/03/28 08:39:00;;;;;;;62.92;15.93;;;6.40;99.90;;;;;;5015276;28;20046;-70
2022/03/28 08:41:27;;;;;;;64.47;16.27;;;6.50;99.90;;;;;;5015183;28;20061;-69
2022/03/28 08:43:53;;;;;;;64.95;17.15;;;6.40;99.90;;;;;;5014121;28;20100;-69
2022/03/28 08:46:19;;;;;;;69.25;16.58;;;6.30;99.90;;;;;;4998040;28;20136;-69
2022/03/28 08:48:46;;;;;;;58.63;14.20;;;6.40;99.90;;;;;;5015311;28;20128;-72
2022/03/28 08:51:16;;;;;;;57.67;14.52;;;6.60;99.90;;;;;;5014077;28;20053;-69
2022/03/28 08:53:44;;;;;;;51.40;13.70;;;6.70;99.90;;;;;;5013406;28;20057;-70
2022/03/28 08:56:10;;;;;;;47.83;13.25;;;6.80;99.90;;;;;;5014042;28;20517;-68
2022/03/28 08:58:36;;;;;;;50.67;15.60;;;6.90;99.90;;;;;;5014467;28;20062;-69
2022/03/28 09:01:03;;;;;;;49.15;13.35;;;7.20;99.90;;;;;;5015221;28;20061;-69
2022/03/28 09:03:39;;;;;;;;;;;7.30;99.90;;;;;;5014942;28;20382;-70
2022/03/28 09:06:44;;;;;;;43.80;12.20;;;7.40;99.90;;;;;;5015153;28;19928;-69
2022/03/28 09:09:13;;;;;;;46.00;12.70;;;7.40;99.90;;;;;;4977042;28;20147;-69
2022/03/28 09:11:40;;;;;;;48.17;14.18;;;7.50;99.90;;;;;;4976343;28;20487;-70
2022/03/28 09:14:06;;;;;;;46.72;13.27;;;7.70;99.90;;;;;;5003354;28;20057;-69
2022/03/28 09:16:34;;;;;;;50.97;14.57;;;7.70;99.90;;;;;;4997997;28;20084;-70
2022/03/28 09:19:10;;;;;;;42.45;11.68;;;7.80;99.90;;;;;;5016690;28;20058;-69
2022/03/28 09:21:37;;;;;;;41.37;12.33;;;7.90;99.90;;;;;;5014523;28;20050;-69
2022/03/28 09:24:07;;;;;;;43.30;12.63;;;7.80;99.90;;;;;;5015158;28;20084;-71
2022/03/28 09:26:34;;;;;;;42.60;11.70;;;7.40;99.90;;;;;;5016077;28;20046;-68
2022/03/28 09:29:02;;;;;;;35.58;9.77;;;7.60;99.90;;;;;;5015655;28;20077;-67
2022/03/28 09:31:34;;;;;;;36.90;9.98;;;7.70;99.90;;;;;;5014352;28;20410;-70
2022/03/28 09:34:03;;;;;;;34.03;10.00;;;7.70;99.90;;;;;;5014541;28;20054;-70
2022/03/28 09:36:43;;;;;;;37.95;9.75;;;7.60;99.90;;;;;;5016111;28;20046;-70
2022/03/28 09:39:12;;;;;;;32.70;9.50;;;7.70;99.90;;;;;;5015782;28;20351;-70
2022/03/28 09:41:39;;;;;;;34.72;10.25;;;7.80;99.90;;;;;;5015539;28;20045;-71
2022/03/28 09:44:05;;;;;;;37.80;9.77;;;7.90;99.90;;;;;;5015284;28;20041;-71
2022/03/28 09:46:32;;;;;;;31.10;9.05;;;8.00;99.90;;;;;;5013107;28;20168;-71
2022/03/28 09:48:59;;;;;;;34.78;9.50;;;8.10;99.90;;;;;;5029942;28;20109;-71
2022/03/28 09:51:27;;;;;;;36.03;10.93;;;8.20;99.90;;;;;;5014972;28;20054;-70
2022/03/28 09:53:53;;;;;;;31.55;10.18;;;8.30;99.90;;;;;;5012930;28;20054;-71
2022/03/28 09:56:19;;;;;;;31.33;9.55;;;8.20;99.90;;;;;;4996781;28;20061;-70
2022/03/28 09:58:56;;;;;;;35.97;11.20;;;7.70;99.90;;;;;;5013370;28;20046;-71
2022/03/28 10:01:27;;;;;;;32.65;9.65;;;7.40;99.90;;;;;;5016114;28;20510;-71
2022/03/28 10:03:58;;;;;;;31.65;9.88;;;7.50;99.90;;;;;;5014246;28;20038;-71
2022/03/28 10:06:24;;;;;;;32.25;10.35;;;7.80;99.90;;;;;;5013471;28;20434;-69
2022/03/28 10:08:50;;;;;;;32.95;9.93;;;7.70;99.90;;;;;;5013494;28;20148;-69
2022/03/28 10:11:18;;;;;;;34.33;11.13;;;7.90;99.90;;;;;;5013780;28;20348;-70
2022/03/28 10:13:45;;;;;;;36.13;9.75;;;8.20;99.90;;;;;;5014125;28;20307;-70
2022/03/28 10:16:11;;;;;;;31.45;10.40;;;8.50;99.90;;;;;;5014282;28;20053;-70
2022/03/28 10:18:39;;;;;;;34.35;10.82;;;8.00;99.90;;;;;;5012700;28;20037;-69
2022/03/28 10:21:18;;;;;;;32.58;10.13;;;8.40;99.90;;;;;;5013479;28;20054;-70
2022/03/28 10:23:51;;;;;;;38.53;13.75;;;;;;;;;;5012404;28;20049;-70
2022/03/28 10:26:24;;;;;;;31.27;10.82;;;8.90;99.90;;;;;;5013373;28;20041;-71
2022/03/28 10:29:03;;;;;;;33.38;11.00;;;9.00;99.90;;;;;;5013796;28;20089;-71
2022/03/28 10:31:32;;;;;;;30.55;9.77;;;8.60;99.90;;;;;;5013358;28;20092;-71
2022/03/28 10:33:58;;;;;;;33.17;10.70;;;8.70;99.90;;;;;;5012859;28;20049;-72
2022/03/28 10:36:33;;;;;;;33.28;10.15;;;9.10;99.90;;;;;;5013419;28;20046;-71
2022/03/28 10:39:31;;;;;;;31.17;10.10;;;9.30;99.90;;;;;;5011804;28;20054;-73
2022/03/28 10:42:12;;;;;;;39.28;11.23;;;9.60;99.90;;;;;;4996299;28;20109;-71
2022/03/28 10:44:47;;;;;;;34.53;11.05;;;9.60;99.90;;;;;;5007618;28;20049;-70
2022/03/28 10:47:16;;;;;;;35.47;10.88;;;9.80;99.90;;;;;;5013239;28;20112;-70
2022/03/28 10:49:43;;;;;;;30.45;11.18;;;10.00;99.90;;;;;;4995610;28;20127;-70
2022/03/28 10:52:15;;;;;;;33.15;11.48;;;10.10;99.90;;;;;;5012612;28;20052;-71
2022/03/28 10:54:41;;;;;;;29.60;9.52;;;10.40;99.90;;;;;;4995756;28;20131;-70
2022/03/28 10:57:26;;;;;;;31.08;11.07;;;10.30;99.90;;;;;;5012929;28;20065;-71
2022/03/28 11:00:01;;;;;;;32.15;10.18;;;10.40;99.90;;;;;;5012565;28;20061;-70
2022/03/28 11:02:29;;;;;;;30.95;9.68;;;10.60;99.90;;;;;;4997018;28;20064;-71
2022/03/28 11:05:05;;;;;;;30.27;9.88;;;;;;;;;;5017215;28;20053;-70
2022/03/28 11:07:32;;;;;;;28.23;9.68;;;10.60;99.90;;;;;;5017099;28;20073;-68
2022/03/28 11:10:06;;;;;;;;;;;10.70;99.90;;;;;;5016467;28;20053;-69
2022/03/28 11:12:37;;;;;;;29.25;9.57;;;10.70;99.90;;;;;;5014651;28;19928;-70
2022/03/28 11:15:24;;;;;;;29.60;10.10;;;10.60;99.90;;;;;;5016046;28;20081;-73
2022/03/28 11:18:02;;;;;;;29.02;9.73;;;9.90;99.90;;;;;;5012785;28;20410;-71
2022/03/28 11:20:44;;;;;;;32.47;9.95;;;10.20;99.90;;;;;;5013782;28;20042;-70
2022/03/28 11:23:11;;;;;;;30.52;10.38;;;10.60;99.90;;;;;;5012046;28;20046;-70
2022/03/28 11:25:51;;;;;;;28.10;9.30;;;10.90;99.90;;;;;;4979504;28;20050;-71
2022/03/28 11:28:24;;;;;;;31.77;11.10;;;11.20;99.90;;;;;;5014167;28;20056;-71
2022/03/28 11:30:59;;;;;;;25.58;9.43;;;11.40;99.90;;;;;;5016551;28;20046;-71
2022/03/28 11:33:32;;;;;;;29.02;9.85;;;11.50;99.90;;;;;;5014301;28;20125;-70
2022/03/28 11:36:06;;;;;;;24.88;8.63;;;11.60;99.90;;;;;;5014841;28;20049;-70
2022/03/28 11:38:44;;;;;;;28.05;9.57;;;11.60;99.90;;;;;;5014103;28;20046;-71
2022/03/28 11:41:13;;;;;;;24.83;9.05;;;11.60;99.90;;;;;;5014849;28;20046;-71
2022/03/28 11:43:40;;;;;;;30.08;9.60;;;11.20;99.90;;;;;;5029703;28;20061;-70
2022/03/28 11:46:20;;;;;;;28.95;9.38;;;10.20;99.90;;;;;;5030354;28;20033;-72
2022/03/28 11:49:04;;;;;;;27.63;9.70;;;10.30;99.90;;;;;;5029407;28;20046;-72
2022/03/28 11:51:34;;;;;;;25.65;9.00;;;10.20;99.90;;;;;;5013588;28;20573;-72
2022/03/28 11:54:12;;;;;;;26.73;9.82;;;10.20;99.90;;;;;;5025151;28;20049;-71
2022/03/28 11:59:24;;;;;;;26.02;8.63;;;10.50;99.90;;;;;;4999829;28;20053;-71
2022/03/28 12:02:02;;;;;;;23.73;8.32;;;10.50;99.90;;;;;;5013502;28;20061;-71
2022/03/28 12:04:29;;;;;;;25.75;8.88;;;10.50;99.90;;;;;;5017953;28;20038;-72
2022/03/28 12:06:56;;;;;;;23.90;9.05;;;10.50;99.90;;;;;;5015981;28;20135;-70
2022/03/28 12:09:22;;;;;;;22.98;8.70;;;10.60;99.90;;;;;;5012125;28;20050;-71
2022/03/28 12:11:50;;;;;;;20.83;7.85;;;10.60;99.90;;;;;;5016178;28;20042;-69
2022/03/28 12:14:16;;;;;;;21.23;8.30;;;10.60;99.90;;;;;;5001003;28;20045;-69
2022/03/28 12:17:00;;;;;;;21.13;8.00;;;10.50;99.90;;;;;;5017604;28;20053;-71
2022/03/28 12:19:28;;;;;;;21.80;8.30;;;10.60;99.90;;;;;;5017379;28;20054;-72
2022/03/28 12:21:56;;;;;;;26.10;8.63;;;10.50;99.90;;;;;;5020631;28;20049;-72
2022/03/28 12:24:24;;;;;;;23.30;8.30;;;10.60;99.90;;;;;;5016206;28;20049;-71
2022/03/28 12:26:53;;;;;;;22.00;8.77;;;10.60;99.90;;;;;;5018423;28;20089;-72
2022/03/28 12:29:20;;;;;;;29.67;9.52;;;10.70;99.90;;;;;;5015201;28;20335;-71
2022/03/28 12:31:48;;;;;;;24.27;9.30;;;10.00;99.90;;;;;;5016453;28;20129;-72
2022/03/28 12:34:17;;;;;;;23.95;8.07;;;9.90;99.90;;;;;;5015736;28;20058;-71
2022/03/28 12:36:43;;;;;;;27.77;10.15;;;9.90;99.90;;;;;;5017125;28;20050;-70
2022/03/28 12:39:10;;;;;;;26.90;9.30;;;10.10;99.90;;;;;;5017664;28;20050;-71
2022/03/28 12:41:53;;;;;;;27.85;10.23;;;9.90;99.90;;;;;;5034296;28;20049;-71
2022/03/28 12:44:23;;;;;;;24.83;9.23;;;9.80;99.90;;;;;;5002302;28;20077;-71
2022/03/28 12:46:50;;;;;;;21.70;8.80;;;10.00;99.90;;;;;;5018698;28;20088;-71
2022/03/28 12:49:19;;;;;;;23.65;9.25;;;10.00;99.90;;;;;;5017631;28;20366;-71
2022/03/28 12:51:47;;;;;;;25.63;9.55;;;10.20;99.90;;;;;;5033637;28;20042;-71